»·PEaware :: N529B KGTF-W43

N529B :: KGTF-W43

FLIGHT INFORMATION

Flight Status: Arrived
Operator: Privately registered:
United States
More flights under this callsign
Pilot: Kim B. (19519)
Aircraft: Unknown
(B29)
More flights by this aircraft type
Origin: KGTF Great Falls Intl
United States
Destination: W43 Hulett Municipal
United States
More flights between these airports :: More routes between these airports
Route: GTF V187 BIL V86 KOCYE
File this flight plan on PilotEdge
Remarks:
Altitude:
(Current/Filed)
15,000ft
Speed:
(Current/Filed)
190kts
Departed: 24-Oct-18 01:10 PM
Arrived: 24-Oct-18 03:10 PM
Distance/Time
Traveled:
329nm/1:59
Distance/Time
To Go:
Arrived

Flight Plot

Page will automatically refresh every two minutes.

Flight plan parsing failed; only flown route is shown


Map Options




Map Legend


Flown Route
Filed Route
Departure Airport
Arrival Airport
Navaid (VOR, NDB)
Fix

Horizontal Profiles

Position Reports

Time Latitude Longitude Heading Altitude Ground
Speed
24-Oct-18 12:59 47.486868 -111.354310 312 3660ft 0kts
24-Oct-18 13:00 47.486868 -111.354310 312 3660ft 0kts
24-Oct-18 13:01 47.486868 -111.354310 312 3660ft 0kts
24-Oct-18 13:02 47.486868 -111.354310 312 3660ft 0kts
24-Oct-18 13:03 47.486868 -111.354310 312 3660ft 0kts
24-Oct-18 13:04 47.486868 -111.354310 312 3660ft 0kts
24-Oct-18 13:05 47.486868 -111.354310 312 3660ft 0kts
24-Oct-18 13:06 47.486868 -111.354310 312 3660ft 0kts
24-Oct-18 13:07 47.487133 -111.354453 3 3660ft 7kts
24-Oct-18 13:08 47.489830 -111.351029 22 3632ft 14kts
24-Oct-18 13:09 47.490984 -111.350811 338 3626ft 0kts
24-Oct-18 13:10 47.491041 -111.350845 334 3626ft 0kts
24-Oct-18 13:11 47.491041 -111.350845 334 3626ft 0kts
24-Oct-18 13:12 47.490036 -111.353292 226 3649ft 51kts
24-Oct-18 13:13 47.469471 -111.383943 229 3968ft 133kts
24-Oct-18 13:14 47.491164 -111.398392 50 5023ft 166kts
24-Oct-18 13:15 47.520764 -111.342329 43 5997ft 179kts
24-Oct-18 13:16 47.556298 -111.288882 43 6904ft 186kts
24-Oct-18 13:17 47.593001 -111.233381 43 7811ft 192kts
24-Oct-18 13:18 47.632030 -111.178912 17 8719ft 191kts
24-Oct-18 13:19 47.681219 -111.167960 320 9649ft 175kts
24-Oct-18 13:20 47.702685 -111.226214 282 10586ft 164kts
24-Oct-18 13:21 47.714392 -111.291699 264 11477ft 163kts
24-Oct-18 13:22 47.690954 -111.344792 200 12409ft 167kts
24-Oct-18 13:23 47.644929 -111.356893 196 13311ft 168kts
24-Oct-18 13:24 47.598421 -111.369757 196 14048ft 176kts
24-Oct-18 13:25 47.548846 -111.383810 195 14671ft 186kts
24-Oct-18 13:26 47.497480 -111.398412 195 14983ft 197kts
24-Oct-18 13:27 47.441042 -111.413939 186 14968ft 216kts
24-Oct-18 13:28 47.399297 -111.351337 112 14973ft 243kts
24-Oct-18 13:29 47.376576 -111.256974 119 14975ft 245kts
24-Oct-18 13:30 47.343515 -111.168510 124 14977ft 246kts
24-Oct-18 13:31 47.307555 -111.082966 126 14980ft 247kts
24-Oct-18 13:32 47.270500 -110.997177 125 14980ft 248kts
24-Oct-18 13:33 47.233373 -110.911902 125 14979ft 248kts
24-Oct-18 13:34 47.196059 -110.826600 125 14980ft 247kts
24-Oct-18 13:35 47.158916 -110.741799 125 14984ft 250kts
24-Oct-18 13:36 47.120948 -110.655261 125 14983ft 258kts
24-Oct-18 13:37 47.081992 -110.566960 125 14983ft 265kts
24-Oct-18 13:38 47.041647 -110.475832 125 14983ft 270kts
24-Oct-18 13:39 47.000852 -110.383983 125 14978ft 267kts
24-Oct-18 13:40 46.971893 -110.319337 126 14972ft 264kts
24-Oct-18 13:41 46.931779 -110.229843 125 14970ft 261kts
24-Oct-18 13:42 46.892181 -110.142127 126 14969ft 259kts
24-Oct-18 13:43 46.853488 -110.055255 145 14977ft 246kts
24-Oct-18 13:44 46.805771 -109.986686 132 14969ft 240kts
24-Oct-18 13:45 46.760760 -109.916477 138 14969ft 235kts
24-Oct-18 13:46 46.714465 -109.850554 139 14970ft 232kts
24-Oct-18 13:47 46.669327 -109.787661 139 14971ft 231kts
24-Oct-18 13:48 46.623420 -109.724135 139 14971ft 230kts
24-Oct-18 13:49 46.577233 -109.660447 139 14971ft 229kts
24-Oct-18 13:50 46.530852 -109.596667 139 14972ft 229kts
24-Oct-18 13:51 46.484418 -109.532981 139 14967ft 229kts
24-Oct-18 13:52 46.438052 -109.469542 139 14967ft 229kts
24-Oct-18 13:53 46.391640 -109.406193 139 14967ft 230kts
24-Oct-18 13:54 46.345734 -109.343706 140 14967ft 229kts
24-Oct-18 13:55 46.304063 -109.287569 140 14967ft 229kts
24-Oct-18 13:56 46.258727 -109.226108 140 14971ft 228kts
24-Oct-18 13:57 46.215315 -109.167472 140 14971ft 226kts
24-Oct-18 13:58 46.177052 -109.115844 139 14972ft 223kts
24-Oct-18 13:59 46.137608 -109.062782 139 14973ft 222kts
24-Oct-18 14:00 46.096243 -109.007188 139 14974ft 221kts
24-Oct-18 14:01 46.058917 -108.957124 138 14975ft 221kts
24-Oct-18 14:02 46.026990 -108.914347 138 14976ft 221kts
24-Oct-18 14:03 45.983356 -108.856028 138 14976ft 221kts
24-Oct-18 14:04 45.946226 -108.806519 138 14976ft 221kts
24-Oct-18 14:05 45.918137 -108.769129 138 14976ft 221kts
24-Oct-18 14:06 45.877498 -108.715481 138 14966ft 221kts
24-Oct-18 14:07 45.841764 -108.668355 138 14966ft 221kts
24-Oct-18 14:08 45.789615 -108.596310 132 14971ft 235kts
24-Oct-18 14:09 45.753681 -108.538590 132 14969ft 241kts
24-Oct-18 14:10 45.709544 -108.468883 133 14967ft 246kts
24-Oct-18 14:11 45.656228 -108.385549 133 14967ft 248kts
24-Oct-18 14:12 45.619090 -108.327710 133 14964ft 249kts
24-Oct-18 14:13 45.573319 -108.256385 134 14964ft 249kts
24-Oct-18 14:14 45.528598 -108.186870 134 14965ft 249kts
24-Oct-18 14:15 45.487098 -108.109451 130 14965ft 250kts
24-Oct-18 14:16 45.445605 -108.040295 132 14965ft 250kts
24-Oct-18 14:17 45.410719 -107.984043 132 14966ft 250kts
24-Oct-18 14:18 45.381351 -107.937099 132 14965ft 249kts
24-Oct-18 14:19 45.363587 -107.908794 133 14968ft 248kts
24-Oct-18 14:20 45.332980 -107.860141 133 14970ft 248kts
24-Oct-18 14:21 45.298333 -107.805341 132 14970ft 248kts
24-Oct-18 14:22 45.251659 -107.733069 127 14965ft 250kts
24-Oct-18 14:23 45.215337 -107.649584 128 14971ft 250kts
24-Oct-18 14:24 45.181304 -107.591090 131 14971ft 250kts
24-Oct-18 14:25 45.160821 -107.557838 132 14971ft 250kts
24-Oct-18 14:26 45.123822 -107.499009 132 14971ft 251kts
24-Oct-18 14:27 45.077176 -107.426179 132 14971ft 251kts
24-Oct-18 14:28 45.030535 -107.352852 132 14975ft 255kts
24-Oct-18 14:29 44.982269 -107.277605 133 14971ft 264kts
24-Oct-18 14:30 44.932303 -107.199911 133 14971ft 271kts
24-Oct-18 14:31 44.881138 -107.120948 133 14969ft 276kts
24-Oct-18 14:32 44.830186 -107.039794 118 14960ft 276kts
24-Oct-18 14:33 44.814680 -106.935790 101 14967ft 271kts
24-Oct-18 14:34 44.797285 -106.836128 104 14968ft 269kts
24-Oct-18 14:35 44.784935 -106.772059 104 14968ft 267kts
24-Oct-18 14:36 44.768183 -106.687512 103 14974ft 265kts
24-Oct-18 14:37 44.748396 -106.588181 103 14975ft 263kts
24-Oct-18 14:38 44.728616 -106.489704 103 14972ft 261kts
24-Oct-18 14:39 44.708873 -106.391954 103 14971ft 259kts
24-Oct-18 14:40 44.689060 -106.295810 104 14970ft 256kts
24-Oct-18 14:41 44.669489 -106.200403 104 14970ft 253kts
24-Oct-18 14:42 44.650032 -106.105865 104 14970ft 251kts
24-Oct-18 14:43 44.630703 -106.012115 104 14971ft 249kts
24-Oct-18 14:44 44.611316 -105.918415 104 14972ft 250kts
24-Oct-18 14:45 44.591734 -105.824203 104 14972ft 252kts
24-Oct-18 14:46 44.574282 -105.728949 102 14973ft 254kts
24-Oct-18 14:47 44.555423 -105.633358 103 14973ft 255kts
24-Oct-18 14:48 44.535627 -105.537374 104 15069ft 248kts
24-Oct-18 14:49 44.516051 -105.445447 104 14402ft 248kts
24-Oct-18 14:50 44.496487 -105.351290 104 13456ft 253kts
24-Oct-18 14:51 44.476418 -105.258416 105 12829ft 239kts
24-Oct-18 14:52 44.457920 -105.172505 105 12923ft 226kts
24-Oct-18 14:53 44.439976 -105.089248 105 12887ft 225kts
24-Oct-18 14:54 44.422371 -105.005027 104 12927ft 226kts
24-Oct-18 14:55 44.405160 -104.919510 103 12927ft 229kts
24-Oct-18 14:56 44.388680 -104.835381 103 12925ft 230kts
24-Oct-18 14:57 44.372281 -104.750514 103 12843ft 224kts
24-Oct-18 14:58 44.374822 -104.667522 43 11893ft 225kts
24-Oct-18 14:59 44.431291 -104.634043 17 10991ft 223kts
24-Oct-18 15:00 44.489492 -104.605173 17 10070ft 220kts
24-Oct-18 15:01 44.546096 -104.577595 11 9231ft 219kts
24-Oct-18 15:02 44.588143 -104.621231 298 8881ft 190kts
24-Oct-18 15:03 44.611875 -104.687446 298 7893ft 189kts
24-Oct-18 15:04 44.635684 -104.749474 318 6835ft 171kts
24-Oct-18 15:05 44.679292 -104.752911 3 5827ft 156kts
24-Oct-18 15:06 44.706151 -104.723231 116 5336ft 127kts
24-Oct-18 15:07 44.697064 -104.677150 106 5495ft 129kts
24-Oct-18 15:08 44.691243 -104.623522 90 5517ft 152kts
24-Oct-18 15:09 44.670812 -104.571355 119 5527ft 160kts
24-Oct-18 15:10 44.638520 -104.531548 181 5106ft 146kts
24-Oct-18 15:11 44.649061 -104.552805 336 4567ft 127kts
24-Oct-18 15:12 44.668220 -104.572144 56 4226ft 5kts
24-Oct-18 15:13 44.668316 -104.571966 49 4226ft 0kts
24-Oct-18 15:14 44.668316 -104.571966 49 4226ft 0kts
24-Oct-18 15:15 44.668316 -104.571966 49 4226ft 0kts
24-Oct-18 15:16 44.668316 -104.571966 49 4226ft 0kts
24-Oct-18 15:17 44.668442 -104.571929 50 4226ft 0kts
24-Oct-18 15:18 44.668442 -104.571929 50 4226ft 0kts
24-Oct-18 15:19 44.668442 -104.571929 50 4226ft 0kts
24-Oct-18 15:20 44.668442 -104.571929 50 4226ft 0kts
24-Oct-18 15:21 44.668442 -104.571929 50 4226ft 0kts
24-Oct-18 15:22 44.668442 -104.571929 50 4226ft 0kts
24-Oct-18 15:23 44.668442 -104.571929 50 4226ft 0kts
24-Oct-18 15:24 44.668442 -104.571929 50 4226ft 0kts
24-Oct-18 15:25 44.668442 -104.571929 50 4226ft 0kts
24-Oct-18 15:26 44.668442 -104.571929 50 4226ft 0kts

Navigation Log

Ident Type
Flight plan parsing failed, navigation log unavailable